Ace High — WQZ3340 — position and weather

sailwx.info

Track history (hours):
 
Tides and Currents Weather Stations Pressure Air Temp Water Temp Dewpoint Dewpoint Depression Visibility Wind Speed Wind Dir Waves Ship Positions

Ace High

Owner: C & C BOATS INC, HUNTINGTON BEACH, CA. More information available from US FCC via Universal Licensing System and Coast Guard Vessel Documentation Center.

Last reported at 2018-Jan-21 16:52 UTC. Time now 2018-Jan-21 18:09 UTC.
Position N 34°26' W 119°55'.

Length 96 m.

Type: Passenger vessel. MMSI: 367394750.

Date/timePositionNaut miles runAvg speedWind from/ knotsBaromVisibWave heightAir tempDewpointWater temp
2018-Jan-21 16:52N 34°26' W 119°55'0 0.0
2018-Jan-21 16:22N 34°26' W 119°55'0 0.0
2018-Jan-21 15:46N 34°26' W 119°55'0 0.0
2018-Jan-21 15:24N 34°26' W 119°55'0 0.0
2018-Jan-21 11:49N 34°26' W 119°55'0 0.0
2018-Jan-21 09:15N 34°26' W 119°55'0 0.0
2018-Jan-21 07:42N 34°26' W 119°55'0 0.0
2018-Jan-21 04:20N 34°26' W 119°55'0 0.0
2018-Jan-21 02:20N 34°26' W 119°55'0 0.1
2018-Jan-21 01:45N 34°26' W 119°55'4 9.8
2018-Jan-21 01:23N 34°24' W 119°59'514.1
2018-Jan-21 01:00N 34°23' W 120°06'4 6.9
2018-Jan-21 00:27N 34°23' W 120°10'0 0.6
2018-Jan-21 00:00N 34°22' W 120°10'0 0.0
2018-Jan-20 23:30N 34°22' W 120°10'0 0.1
2018-Jan-20 22:59N 34°22' W 120°10'0 0.1
2018-Jan-20 22:30N 34°22' W 120°10'0 0.1
2018-Jan-20 22:00N 34°22' W 120°10'0 0.0
2018-Jan-20 21:26N 34°22' W 120°10'0 0.0
2018-Jan-20 20:58N 34°22' W 120°10'0 0.0
2018-Jan-20 20:30N 34°22' W 120°10'0 0.0
2018-Jan-20 20:00N 34°22' W 120°10'0 0.0
2018-Jan-20 19:30N 34°22' W 120°10'0 0.0
2018-Jan-20 19:00N 34°22' W 120°10'3 6.1
2018-Jan-20 18:27N 34°23' W 120°06'613.7
2018-Jan-20 17:59N 34°24' W 119°58'3 6.3
2018-Jan-20 17:30N 34°26' W 119°55'611.5
2018-Jan-20 16:57N 34°24' W 120°03'510.7
2018-Jan-20 16:30N 34°23' W 120°09'713.7
2018-Jan-20 16:00N 34°21' W 120°16'510.3
2018-Jan-20 15:28N 34°23' W 120°10'2 5.1
2018-Jan-20 15:00N 34°23' W 120°07'0 0.5
2018-Jan-20 14:28N 34°23' W 120°07'0 0.0
2018-Jan-20 14:00N 34°23' W 120°07'0 0.0
2018-Jan-20 13:29N 34°23' W 120°07'0 0.0
2018-Jan-20 13:00N 34°23' W 120°07'0 0.0
2018-Jan-20 12:29N 34°23' W 120°07'0 0.0
2018-Jan-20 12:00N 34°23' W 120°07'0 0.0
2018-Jan-20 11:30N 34°23' W 120°07'0 0.0
2018-Jan-20 11:00N 34°23' W 120°07'0 0.0
2018-Jan-20 10:30N 34°23' W 120°07'0 0.0
2018-Jan-20 10:00N 34°23' W 120°07'0 0.0
2018-Jan-20 09:29N 34°23' W 120°07'0 0.0
2018-Jan-20 09:00N 34°23' W 120°07'0 0.0
2018-Jan-20 08:30N 34°23' W 120°07'0 0.0
2018-Jan-20 08:00N 34°23' W 120°07'0 0.0
2018-Jan-20 07:30N 34°23' W 120°07'0 0.0
2018-Jan-20 07:00N 34°23' W 120°07'0 0.0
2018-Jan-20 06:27N 34°23' W 120°07'0 0.0
2018-Jan-20 06:00N 34°23' W 120°07'0 0.0
2018-Jan-20 05:30N 34°23' W 120°07'0 0.0
2018-Jan-20 04:59N 34°23' W 120°07'0 0.0
2018-Jan-20 04:28N 34°23' W 120°07'0 0.0
2018-Jan-20 04:00N 34°23' W 120°07'0 0.0
2018-Jan-20 03:30N 34°23' W 120°07'0 0.0
2018-Jan-20 03:00N 34°23' W 120°07'0 0.0
2018-Jan-20 02:30N 34°23' W 120°07'0 0.0
2018-Jan-20 02:00N 34°23' W 120°07'0 0.0
2018-Jan-20 01:30N 34°23' W 120°07'0 0.0
2018-Jan-20 00:59N 34°23' W 120°07'0 0.0
2018-Jan-20 00:30N 34°23' W 120°07'2 3.4
2018-Jan-19 23:59N 34°23' W 120°09'1 1.5
2018-Jan-19 23:30N 34°22' W 120°10'0 0.0
2018-Jan-19 23:00N 34°22' W 120°10'0 0.1
2018-Jan-19 22:30N 34°22' W 120°10'0 0.0
2018-Jan-19 22:00N 34°22' W 120°10'0 0.0
2018-Jan-19 21:28N 34°22' W 120°10'0 0.0
2018-Jan-19 21:00N 34°22' W 120°10'7 8.1
2018-Jan-19 20:05N 34°23' W 120°01'212.2
2018-Jan-19 19:57N 34°24' W 119°59'4 0.9
2018-Jan-19 15:45N 34°26' W 119°55'0 0.0
2018-Jan-19 12:41N 34°26' W 119°55'0 0.0
2018-Jan-19 12:23N 34°26' W 119°55'0 0.0
2018-Jan-19 10:26N 34°26' W 119°55'0 0.0
2018-Jan-19 09:50N 34°26' W 119°55'0 0.0
2018-Jan-19 09:14N 34°26' W 119°55'0 0.0
2018-Jan-19 08:47N 34°26' W 119°55'0 0.0
2018-Jan-19 08:14N 34°26' W 119°55'0 0.0
2018-Jan-19 07:56N 34°26' W 119°55'0 0.0
2018-Jan-19 06:37N 34°26' W 119°55'0 0.0
2018-Jan-19 06:13N 34°26' W 119°55'0 0.0
2018-Jan-19 06:00N 34°26' W 119°55'0 0.0
2018-Jan-19 04:29N 34°26' W 119°55'0 0.0
2018-Jan-19 02:50N 34°26' W 119°55'0 0.0
2018-Jan-19 01:14N 34°26' W 119°55'0 0.0
2018-Jan-18 22:29N 34°26' W 119°55'0 0.0
2018-Jan-18 21:50N 34°26' W 119°55'0 0.0
2018-Jan-18 21:20N 34°26' W 119°55'0 0.0
2018-Jan-18 20:56N 34°26' W 119°55'0 0.0
2018-Jan-18 19:08N 34°26' W 119°55'0 0.0
2018-Jan-18 18:56N 34°26' W 119°55'0 0.0
2018-Jan-18 18:29N 34°26' W 119°55'0 0.4
2018-Jan-18 17:53N 34°26' W 119°55'2 6.3
2018-Jan-18 17:30N 34°24' W 119°58'713.9
2018-Jan-18 17:00N 34°23' W 120°06'4 7.0
2018-Jan-18 16:29N 34°23' W 120°10'610.8
2018-Jan-18 15:57N 34°21' W 120°17'5 8.6
2018-Jan-18 15:21N 34°22' W 120°11'3 8.8
2018-Jan-18 15:00N 34°23' W 120°07'0 0.3
2018-Jan-18 14:30N 34°23' W 120°07'0 0.0
2018-Jan-18 13:59N 34°23' W 120°07'0 0.0
2018-Jan-18 13:28N 34°23' W 120°07'0 0.0
2018-Jan-18 13:00N 34°23' W 120°07'0 0.0
2018-Jan-18 12:26N 34°23' W 120°07'0 0.0
2018-Jan-18 11:55N 34°23' W 120°07'0 0.0
2018-Jan-18 11:28N 34°23' W 120°07'0 0.0
2018-Jan-18 10:59N 34°23' W 120°07'0 0.0
2018-Jan-18 10:26N 34°23' W 120°07'0 0.1
2018-Jan-18 09:59N 34°23' W 120°07'0 0.0
2018-Jan-18 09:29N 34°23' W 120°07'0 0.0
2018-Jan-18 08:59N 34°23' W 120°07'0 0.1
2018-Jan-18 08:26N 34°23' W 120°07'0 0.0
2018-Jan-18 07:59N 34°23' W 120°07'0 0.1
2018-Jan-18 07:18N 34°23' W 120°07'0 0.0
2018-Jan-18 04:20N 34°23' W 120°07'0 0.0
2018-Jan-18 03:50N 34°23' W 120°07'0 0.1
2018-Jan-18 02:54N 34°23' W 120°07'0 0.1
2018-Jan-18 02:24N 34°23' W 120°07'0 0.0
2018-Jan-18 01:56N 34°23' W 120°07'0 0.1
2018-Jan-18 01:30N 34°23' W 120°07'2 3.0
2018-Jan-18 00:59N 34°23' W 120°09'7 6.5
2018-Jan-17 23:56N 34°21' W 120°17'  
2018-Jan-12 13:56N 34°26' W 119°55'0 0.3
2018-Jan-12 12:54N 34°26' W 119°55'0 0.0
2018-Jan-12 03:24N 34°26' W 119°55'0 0.0
2018-Jan-12 03:00N 34°26' W 119°55'0 0.0
2018-Jan-11 23:56N 34°26' W 119°55'710.8
2018-Jan-11 23:20N 34°24' W 120°03'410.9
2018-Jan-11 23:00N 34°23' W 120°07'914.3
2018-Jan-11 22:23N 34°24' W 119°57'1 1.5
2018-Jan-11 22:00N 34°24' W 119°56'713.5
2018-Jan-11 21:28N 34°24' W 120°05'510.1
2018-Jan-11 21:00N 34°23' W 120°11'510.5
2018-Jan-11 20:30N 34°21' W 120°17'1 1.7
2018-Jan-11 20:00N 34°21' W 120°16'611.2
2018-Jan-11 19:29N 34°23' W 120°09'814.7
2018-Jan-11 18:58N 34°25' W 120°00'4 6.5
2018-Jan-11 18:21N 34°26' W 119°55'0 0.0
2018-Jan-11 17:51N 34°26' W 119°55'0 0.4
2018-Jan-11 17:19N 34°26' W 119°55'2 3.9
2018-Jan-11 16:54N 34°24' W 119°57'  
Track history (hours):
 
Tides and Currents Weather Stations Pressure Air Temp Water Temp Dewpoint Dewpoint Depression Visibility Wind Speed Wind Dir Waves Ship Positions

Ace High

Owner: C & C BOATS INC, HUNTINGTON BEACH, CA. More information available from US FCC via Universal Licensing System and Coast Guard Vessel Documentation Center.

Last reported at 2018-Jan-21 16:52 UTC. Time now 2018-Jan-21 18:09 UTC.
Position N 34°26' W 119°55'.

Length 96 m.

Type: Passenger vessel. MMSI: 367394750.

Date/timePositionNaut miles runAvg speedWind from/ knotsBaromVisibWave heightAir tempDewpointWater temp
2018-Jan-21 16:52N 34°26' W 119°55'0 0.0
2018-Jan-21 16:22N 34°26' W 119°55'0 0.0
2018-Jan-21 15:46N 34°26' W 119°55'0 0.0
2018-Jan-21 15:24N 34°26' W 119°55'0 0.0
2018-Jan-21 11:49N 34°26' W 119°55'0 0.0
2018-Jan-21 09:15N 34°26' W 119°55'0 0.0
2018-Jan-21 07:42N 34°26' W 119°55'0 0.0
2018-Jan-21 04:20N 34°26' W 119°55'0 0.0
2018-Jan-21 02:20N 34°26' W 119°55'0 0.1
2018-Jan-21 01:45N 34°26' W 119°55'4 9.8
2018-Jan-21 01:23N 34°24' W 119°59'514.1
2018-Jan-21 01:00N 34°23' W 120°06'4 6.9
2018-Jan-21 00:27N 34°23' W 120°10'0 0.6
2018-Jan-21 00:00N 34°22' W 120°10'0 0.0
2018-Jan-20 23:30N 34°22' W 120°10'0 0.1
2018-Jan-20 22:59N 34°22' W 120°10'0 0.1
2018-Jan-20 22:30N 34°22' W 120°10'0 0.1
2018-Jan-20 22:00N 34°22' W 120°10'0 0.0
2018-Jan-20 21:26N 34°22' W 120°10'0 0.0
2018-Jan-20 20:58N 34°22' W 120°10'0 0.0
2018-Jan-20 20:30N 34°22' W 120°10'0 0.0
2018-Jan-20 20:00N 34°22' W 120°10'0 0.0
2018-Jan-20 19:30N 34°22' W 120°10'0 0.0
2018-Jan-20 19:00N 34°22' W 120°10'3 6.1
2018-Jan-20 18:27N 34°23' W 120°06'613.7
2018-Jan-20 17:59N 34°24' W 119°58'3 6.3
2018-Jan-20 17:30N 34°26' W 119°55'611.5
2018-Jan-20 16:57N 34°24' W 120°03'510.7
2018-Jan-20 16:30N 34°23' W 120°09'713.7
2018-Jan-20 16:00N 34°21' W 120°16'510.3
2018-Jan-20 15:28N 34°23' W 120°10'2 5.1
2018-Jan-20 15:00N 34°23' W 120°07'0 0.5
2018-Jan-20 14:28N 34°23' W 120°07'0 0.0
2018-Jan-20 14:00N 34°23' W 120°07'0 0.0
2018-Jan-20 13:29N 34°23' W 120°07'0 0.0
2018-Jan-20 13:00N 34°23' W 120°07'0 0.0
2018-Jan-20 12:29N 34°23' W 120°07'0 0.0
2018-Jan-20 12:00N 34°23' W 120°07'0 0.0
2018-Jan-20 11:30N 34°23' W 120°07'0 0.0
2018-Jan-20 11:00N 34°23' W 120°07'0 0.0
2018-Jan-20 10:30N 34°23' W 120°07'0 0.0
2018-Jan-20 10:00N 34°23' W 120°07'0 0.0
2018-Jan-20 09:29N 34°23' W 120°07'0 0.0
2018-Jan-20 09:00N 34°23' W 120°07'0 0.0
2018-Jan-20 08:30N 34°23' W 120°07'0 0.0
2018-Jan-20 08:00N 34°23' W 120°07'0 0.0
2018-Jan-20 07:30N 34°23' W 120°07'0 0.0
2018-Jan-20 07:00N 34°23' W 120°07'0 0.0
2018-Jan-20 06:27N 34°23' W 120°07'0 0.0
2018-Jan-20 06:00N 34°23' W 120°07'0 0.0
2018-Jan-20 05:30N 34°23' W 120°07'0 0.0
2018-Jan-20 04:59N 34°23' W 120°07'0 0.0
2018-Jan-20 04:28N 34°23' W 120°07'0 0.0
2018-Jan-20 04:00N 34°23' W 120°07'0 0.0
2018-Jan-20 03:30N 34°23' W 120°07'0 0.0
2018-Jan-20 03:00N 34°23' W 120°07'0 0.0
2018-Jan-20 02:30N 34°23' W 120°07'0 0.0
2018-Jan-20 02:00N 34°23' W 120°07'0 0.0
2018-Jan-20 01:30N 34°23' W 120°07'0 0.0
2018-Jan-20 00:59N 34°23' W 120°07'0 0.0
2018-Jan-20 00:30N 34°23' W 120°07'2 3.4
2018-Jan-19 23:59N 34°23' W 120°09'1 1.5
2018-Jan-19 23:30N 34°22' W 120°10'0 0.0
2018-Jan-19 23:00N 34°22' W 120°10'0 0.1
2018-Jan-19 22:30N 34°22' W 120°10'0 0.0
2018-Jan-19 22:00N 34°22' W 120°10'0 0.0
2018-Jan-19 21:28N 34°22' W 120°10'0 0.0
2018-Jan-19 21:00N 34°22' W 120°10'7 8.1
2018-Jan-19 20:05N 34°23' W 120°01'212.2
2018-Jan-19 19:57N 34°24' W 119°59'4 0.9
2018-Jan-19 15:45N 34°26' W 119°55'0 0.0
2018-Jan-19 12:41N 34°26' W 119°55'0 0.0
2018-Jan-19 12:23N 34°26' W 119°55'0 0.0
2018-Jan-19 10:26N 34°26' W 119°55'0 0.0
2018-Jan-19 09:50N 34°26' W 119°55'0 0.0
2018-Jan-19 09:14N 34°26' W 119°55'0 0.0
2018-Jan-19 08:47N 34°26' W 119°55'0 0.0
2018-Jan-19 08:14N 34°26' W 119°55'0 0.0
2018-Jan-19 07:56N 34°26' W 119°55'0 0.0
2018-Jan-19 06:37N 34°26' W 119°55'0 0.0
2018-Jan-19 06:13N 34°26' W 119°55'0 0.0
2018-Jan-19 06:00N 34°26' W 119°55'0 0.0
2018-Jan-19 04:29N 34°26' W 119°55'0 0.0
2018-Jan-19 02:50N 34°26' W 119°55'0 0.0
2018-Jan-19 01:14N 34°26' W 119°55'0 0.0
2018-Jan-18 22:29N 34°26' W 119°55'0 0.0
2018-Jan-18 21:50N 34°26' W 119°55'0 0.0
2018-Jan-18 21:20N 34°26' W 119°55'0 0.0
2018-Jan-18 20:56N 34°26' W 119°55'0 0.0
2018-Jan-18 19:08N 34°26' W 119°55'0 0.0
2018-Jan-18 18:56N 34°26' W 119°55'0 0.0
2018-Jan-18 18:29N 34°26' W 119°55'0 0.4
2018-Jan-18 17:53N 34°26' W 119°55'2 6.3
2018-Jan-18 17:30N 34°24' W 119°58'713.9
2018-Jan-18 17:00N 34°23' W 120°06'4 7.0
2018-Jan-18 16:29N 34°23' W 120°10'610.8
2018-Jan-18 15:57N 34°21' W 120°17'5 8.6
2018-Jan-18 15:21N 34°22' W 120°11'3 8.8
2018-Jan-18 15:00N 34°23' W 120°07'0 0.3
2018-Jan-18 14:30N 34°23' W 120°07'0 0.0
2018-Jan-18 13:59N 34°23' W 120°07'0 0.0
2018-Jan-18 13:28N 34°23' W 120°07'0 0.0
2018-Jan-18 13:00N 34°23' W 120°07'0 0.0
2018-Jan-18 12:26N 34°23' W 120°07'0 0.0
2018-Jan-18 11:55N 34°23' W 120°07'0 0.0
2018-Jan-18 11:28N 34°23' W 120°07'0 0.0
2018-Jan-18 10:59N 34°23' W 120°07'0 0.0
2018-Jan-18 10:26N 34°23' W 120°07'0 0.1
2018-Jan-18 09:59N 34°23' W 120°07'0 0.0
2018-Jan-18 09:29N 34°23' W 120°07'0 0.0
2018-Jan-18 08:59N 34°23' W 120°07'0 0.1
2018-Jan-18 08:26N 34°23' W 120°07'0 0.0
2018-Jan-18 07:59N 34°23' W 120°07'0 0.1
2018-Jan-18 07:18N 34°23' W 120°07'0 0.0
2018-Jan-18 04:20N 34°23' W 120°07'0 0.0
2018-Jan-18 03:50N 34°23' W 120°07'0 0.1
2018-Jan-18 02:54N 34°23' W 120°07'0 0.1
2018-Jan-18 02:24N 34°23' W 120°07'0 0.0
2018-Jan-18 01:56N 34°23' W 120°07'0 0.1
2018-Jan-18 01:30N 34°23' W 120°07'2 3.0
2018-Jan-18 00:59N 34°23' W 120°09'7 6.5
2018-Jan-17 23:56N 34°21' W 120°17'  
2018-Jan-12 13:56N 34°26' W 119°55'0 0.3
2018-Jan-12 12:54N 34°26' W 119°55'0 0.0
2018-Jan-12 03:24N 34°26' W 119°55'0 0.0
2018-Jan-12 03:00N 34°26' W 119°55'0 0.0
2018-Jan-11 23:56N 34°26' W 119°55'710.8
2018-Jan-11 23:20N 34°24' W 120°03'410.9
2018-Jan-11 23:00N 34°23' W 120°07'914.3
2018-Jan-11 22:23N 34°24' W 119°57'1 1.5
2018-Jan-11 22:00N 34°24' W 119°56'713.5
2018-Jan-11 21:28N 34°24' W 120°05'510.1
2018-Jan-11 21:00N 34°23' W 120°11'510.5
2018-Jan-11 20:30N 34°21' W 120°17'1 1.7
2018-Jan-11 20:00N 34°21' W 120°16'611.2
2018-Jan-11 19:29N 34°23' W 120°09'814.7
2018-Jan-11 18:58N 34°25' W 120°00'4 6.5
2018-Jan-11 18:21N 34°26' W 119°55'0 0.0
2018-Jan-11 17:51N 34°26' W 119°55'0 0.4
2018-Jan-11 17:19N 34°26' W 119°55'2 3.9
2018-Jan-11 16:54N 34°24' W 119°57'  

Dump ship's entire track history